Terminal Aerodrome Forecast
Issued by NWS

Home | Current Version | Previous Version | Text Only | Print | Product List | Glossary On
Versions: 1 2 3 4 5 6 7 8 9 10 11 12 13 14 15 16 17 18 19 20 21 22 23 24
000
FTUS45 KABQ 312300
TAFSAF
TAF
KSAF 312339Z 0100/0124 26005KT P6SM OVC003
     FM010200 34005KT P6SM BKN002
      TEMPO 0104/0108 1SM BR OVC002
     FM010800 36006KT P6SM SCT009 BKN050
      TEMPO 0108/0112 1SM BR BKN009
     FM011300 36011KT P6SM SKC=

USA.gov is the U.S. government's official web portal to all federal, state and local government web resources and services.